<?xml version="1.0" encoding="UTF-8" standalone="no" ?>
<gpx xmlns="http://www.topografix.com/GPX/1/1" xmlns:xsi="http://www.w3.org/2001/XMLSchema-instance" xsi:schemaLocation="http://www.topografix.com/GPX/1/1 http://www.topografix.com/GPX/1/1/gpx.xsd" version="1.1" creator="VisuGPX - https://www.visugpx.com">
  <metadata>
    <name>Montée Courtet</name>
  </metadata>
  <wpt lat="44.77027" lon="5.79889">
    <ele>1363</ele>
    <name><![CDATA[]]></name>
    <type><![CDATA[GENERIC]]></type>
  </wpt>
  <wpt lat="44.7749" lon="5.7811">
    <ele>896</ele>
    <name><![CDATA[]]></name>
    <type><![CDATA[GENERIC]]></type>
  </wpt>
  <trk>
    <name><![CDATA[Montée Courtet]]></name>
    <trkseg>
      <trkpt lat="44.7749" lon="5.7811">
        <ele>896</ele>
        <time>2025-04-21T12:28:24.000Z</time>
      </trkpt>
      <trkpt lat="44.77489" lon="5.78117">
        <ele>896</ele>
        <time>2025-04-21T12:28:27.000Z</time>
      </trkpt>
      <trkpt lat="44.77471" lon="5.78135">
        <ele>897</ele>
        <time>2025-04-21T12:28:45.000Z</time>
      </trkpt>
      <trkpt lat="44.7745" lon="5.78144">
        <ele>897</ele>
        <time>2025-04-21T12:29:03.000Z</time>
      </trkpt>
      <trkpt lat="44.77428" lon="5.78158">
        <ele>898</ele>
        <time>2025-04-21T12:29:18.000Z</time>
      </trkpt>
      <trkpt lat="44.77405" lon="5.78168">
        <ele>899</ele>
        <time>2025-04-21T12:29:36.000Z</time>
      </trkpt>
      <trkpt lat="44.77382" lon="5.78172">
        <ele>901</ele>
        <time>2025-04-21T12:29:54.000Z</time>
      </trkpt>
      <trkpt lat="44.77358" lon="5.78174">
        <ele>902</ele>
        <time>2025-04-21T12:30:12.000Z</time>
      </trkpt>
      <trkpt lat="44.77335" lon="5.78174">
        <ele>904</ele>
        <time>2025-04-21T12:30:30.000Z</time>
      </trkpt>
      <trkpt lat="44.77312" lon="5.78171">
        <ele>906</ele>
        <time>2025-04-21T12:30:48.000Z</time>
      </trkpt>
      <trkpt lat="44.7729" lon="5.7817">
        <ele>907</ele>
        <time>2025-04-21T12:31:06.000Z</time>
      </trkpt>
      <trkpt lat="44.77265" lon="5.78175">
        <ele>909</ele>
        <time>2025-04-21T12:31:24.000Z</time>
      </trkpt>
      <trkpt lat="44.7724" lon="5.78181">
        <ele>911</ele>
        <time>2025-04-21T12:31:42.000Z</time>
      </trkpt>
      <trkpt lat="44.77216" lon="5.78186">
        <ele>912</ele>
        <time>2025-04-21T12:32:00.000Z</time>
      </trkpt>
      <trkpt lat="44.77193" lon="5.78186">
        <ele>914</ele>
        <time>2025-04-21T12:32:18.000Z</time>
      </trkpt>
      <trkpt lat="44.77168" lon="5.78184">
        <ele>916</ele>
        <time>2025-04-21T12:32:36.000Z</time>
      </trkpt>
      <trkpt lat="44.77144" lon="5.78181">
        <ele>918</ele>
        <time>2025-04-21T12:32:54.000Z</time>
      </trkpt>
      <trkpt lat="44.7712" lon="5.78178">
        <ele>919</ele>
        <time>2025-04-21T12:33:12.000Z</time>
      </trkpt>
      <trkpt lat="44.77097" lon="5.78178">
        <ele>921</ele>
        <time>2025-04-21T12:33:30.000Z</time>
      </trkpt>
      <trkpt lat="44.77074" lon="5.7818">
        <ele>923</ele>
        <time>2025-04-21T12:33:48.000Z</time>
      </trkpt>
      <trkpt lat="44.77051" lon="5.78181">
        <ele>925</ele>
        <time>2025-04-21T12:34:06.000Z</time>
      </trkpt>
      <trkpt lat="44.77027" lon="5.7818">
        <ele>928</ele>
        <time>2025-04-21T12:34:27.000Z</time>
      </trkpt>
      <trkpt lat="44.77004" lon="5.78177">
        <ele>930</ele>
        <time>2025-04-21T12:34:42.000Z</time>
      </trkpt>
      <trkpt lat="44.7698" lon="5.78174">
        <ele>932</ele>
        <time>2025-04-21T12:35:00.000Z</time>
      </trkpt>
      <trkpt lat="44.76957" lon="5.78176">
        <ele>933</ele>
        <time>2025-04-21T12:35:18.000Z</time>
      </trkpt>
      <trkpt lat="44.76942" lon="5.78198">
        <ele>935</ele>
        <time>2025-04-21T12:35:39.000Z</time>
      </trkpt>
      <trkpt lat="44.76936" lon="5.78229">
        <ele>937</ele>
        <time>2025-04-21T12:36:39.000Z</time>
      </trkpt>
      <trkpt lat="44.76932" lon="5.78263">
        <ele>939</ele>
        <time>2025-04-21T12:37:00.000Z</time>
      </trkpt>
      <trkpt lat="44.76919" lon="5.7829">
        <ele>942</ele>
        <time>2025-04-21T12:37:21.000Z</time>
      </trkpt>
      <trkpt lat="44.769" lon="5.78307">
        <ele>944</ele>
        <time>2025-04-21T12:37:39.000Z</time>
      </trkpt>
      <trkpt lat="44.76881" lon="5.78327">
        <ele>947</ele>
        <time>2025-04-21T12:38:00.000Z</time>
      </trkpt>
      <trkpt lat="44.76868" lon="5.78354">
        <ele>949</ele>
        <time>2025-04-21T12:38:21.000Z</time>
      </trkpt>
      <trkpt lat="44.76855" lon="5.78381">
        <ele>952</ele>
        <time>2025-04-21T12:38:42.000Z</time>
      </trkpt>
      <trkpt lat="44.76837" lon="5.78398">
        <ele>954</ele>
        <time>2025-04-21T12:39:03.000Z</time>
      </trkpt>
      <trkpt lat="44.76817" lon="5.78413">
        <ele>957</ele>
        <time>2025-04-21T12:39:24.000Z</time>
      </trkpt>
      <trkpt lat="44.76801" lon="5.78438">
        <ele>960</ele>
        <time>2025-04-21T12:39:45.000Z</time>
      </trkpt>
      <trkpt lat="44.76786" lon="5.78465">
        <ele>963</ele>
        <time>2025-04-21T12:40:06.000Z</time>
      </trkpt>
      <trkpt lat="44.76771" lon="5.78492">
        <ele>967</ele>
        <time>2025-04-21T12:40:30.000Z</time>
      </trkpt>
      <trkpt lat="44.76756" lon="5.78519">
        <ele>970</ele>
        <time>2025-04-21T12:40:54.000Z</time>
      </trkpt>
      <trkpt lat="44.76738" lon="5.78544">
        <ele>973</ele>
        <time>2025-04-21T12:41:15.000Z</time>
      </trkpt>
      <trkpt lat="44.76716" lon="5.78563">
        <ele>978</ele>
        <time>2025-04-21T12:41:42.000Z</time>
      </trkpt>
      <trkpt lat="44.76694" lon="5.78579">
        <ele>982</ele>
        <time>2025-04-21T12:42:03.000Z</time>
      </trkpt>
      <trkpt lat="44.76673" lon="5.7859">
        <ele>985</ele>
        <time>2025-04-21T12:42:33.000Z</time>
      </trkpt>
      <trkpt lat="44.76659" lon="5.78616">
        <ele>989</ele>
        <time>2025-04-21T12:42:54.000Z</time>
      </trkpt>
      <trkpt lat="44.76645" lon="5.78643">
        <ele>993</ele>
        <time>2025-04-21T12:43:15.000Z</time>
      </trkpt>
      <trkpt lat="44.76645" lon="5.78674">
        <ele>998</ele>
        <time>2025-04-21T12:43:39.000Z</time>
      </trkpt>
      <trkpt lat="44.76661" lon="5.78697">
        <ele>1001</ele>
        <time>2025-04-21T12:44:03.000Z</time>
      </trkpt>
      <trkpt lat="44.76683" lon="5.78713">
        <ele>1005</ele>
        <time>2025-04-21T12:44:27.000Z</time>
      </trkpt>
      <trkpt lat="44.76705" lon="5.78726">
        <ele>1009</ele>
        <time>2025-04-21T12:44:45.000Z</time>
      </trkpt>
      <trkpt lat="44.76727" lon="5.78731">
        <ele>1013</ele>
        <time>2025-04-21T12:45:09.000Z</time>
      </trkpt>
      <trkpt lat="44.7675" lon="5.78724">
        <ele>1015</ele>
        <time>2025-04-21T12:45:30.000Z</time>
      </trkpt>
      <trkpt lat="44.76774" lon="5.78713">
        <ele>1017</ele>
        <time>2025-04-21T12:45:51.000Z</time>
      </trkpt>
      <trkpt lat="44.76795" lon="5.787">
        <ele>1017</ele>
        <time>2025-04-21T12:46:12.000Z</time>
      </trkpt>
      <trkpt lat="44.76818" lon="5.78696">
        <ele>1018</ele>
        <time>2025-04-21T12:46:36.000Z</time>
      </trkpt>
      <trkpt lat="44.76838" lon="5.78707">
        <ele>1023</ele>
        <time>2025-04-21T12:46:57.000Z</time>
      </trkpt>
      <trkpt lat="44.76847" lon="5.78739">
        <ele>1029</ele>
        <time>2025-04-21T12:47:24.000Z</time>
      </trkpt>
      <trkpt lat="44.76849" lon="5.78772">
        <ele>1032</ele>
        <time>2025-04-21T12:47:45.000Z</time>
      </trkpt>
      <trkpt lat="44.76847" lon="5.78806">
        <ele>1036</ele>
        <time>2025-04-21T12:48:06.000Z</time>
      </trkpt>
      <trkpt lat="44.76842" lon="5.78838">
        <ele>1040</ele>
        <time>2025-04-21T12:48:27.000Z</time>
      </trkpt>
      <trkpt lat="44.7683" lon="5.78868">
        <ele>1045</ele>
        <time>2025-04-21T12:48:51.000Z</time>
      </trkpt>
      <trkpt lat="44.76811" lon="5.78885">
        <ele>1048</ele>
        <time>2025-04-21T12:49:18.000Z</time>
      </trkpt>
      <trkpt lat="44.7679" lon="5.78893">
        <ele>1049</ele>
        <time>2025-04-21T12:49:42.000Z</time>
      </trkpt>
      <trkpt lat="44.76769" lon="5.78907">
        <ele>1050</ele>
        <time>2025-04-21T12:50:06.000Z</time>
      </trkpt>
      <trkpt lat="44.76751" lon="5.7893">
        <ele>1057</ele>
        <time>2025-04-21T12:50:30.000Z</time>
      </trkpt>
      <trkpt lat="44.7673" lon="5.78943">
        <ele>1060</ele>
        <time>2025-04-21T12:50:54.000Z</time>
      </trkpt>
      <trkpt lat="44.76706" lon="5.78945">
        <ele>1061</ele>
        <time>2025-04-21T12:51:21.000Z</time>
      </trkpt>
      <trkpt lat="44.76684" lon="5.78948">
        <ele>1063</ele>
        <time>2025-04-21T12:51:45.000Z</time>
      </trkpt>
      <trkpt lat="44.76663" lon="5.78962">
        <ele>1067</ele>
        <time>2025-04-21T12:52:06.000Z</time>
      </trkpt>
      <trkpt lat="44.76643" lon="5.78976">
        <ele>1070</ele>
        <time>2025-04-21T12:52:27.000Z</time>
      </trkpt>
      <trkpt lat="44.76621" lon="5.78991">
        <ele>1072</ele>
        <time>2025-04-21T12:52:51.000Z</time>
      </trkpt>
      <trkpt lat="44.76604" lon="5.79004">
        <ele>1075</ele>
        <time>2025-04-21T12:53:09.000Z</time>
      </trkpt>
      <trkpt lat="44.76617" lon="5.79022">
        <ele>1082</ele>
        <time>2025-04-21T12:53:33.000Z</time>
      </trkpt>
      <trkpt lat="44.76639" lon="5.79025">
        <ele>1083</ele>
        <time>2025-04-21T12:53:54.000Z</time>
      </trkpt>
      <trkpt lat="44.76663" lon="5.79026">
        <ele>1085</ele>
        <time>2025-04-21T12:54:15.000Z</time>
      </trkpt>
      <trkpt lat="44.76687" lon="5.79032">
        <ele>1088</ele>
        <time>2025-04-21T12:54:36.000Z</time>
      </trkpt>
      <trkpt lat="44.76703" lon="5.79043">
        <ele>1091</ele>
        <time>2025-04-21T12:55:00.000Z</time>
      </trkpt>
      <trkpt lat="44.76686" lon="5.79053">
        <ele>1093</ele>
        <time>2025-04-21T12:55:27.000Z</time>
      </trkpt>
      <trkpt lat="44.76663" lon="5.79065">
        <ele>1095</ele>
        <time>2025-04-21T12:55:51.000Z</time>
      </trkpt>
      <trkpt lat="44.76645" lon="5.79075">
        <ele>1097</ele>
        <time>2025-04-21T12:56:12.000Z</time>
      </trkpt>
      <trkpt lat="44.76658" lon="5.79093">
        <ele>1103</ele>
        <time>2025-04-21T12:56:57.000Z</time>
      </trkpt>
      <trkpt lat="44.76681" lon="5.79097">
        <ele>1106</ele>
        <time>2025-04-21T12:57:24.000Z</time>
      </trkpt>
      <trkpt lat="44.76706" lon="5.79101">
        <ele>1115</ele>
        <time>2025-04-21T12:57:51.000Z</time>
      </trkpt>
      <trkpt lat="44.76728" lon="5.79098">
        <ele>1119</ele>
        <time>2025-04-21T12:58:12.000Z</time>
      </trkpt>
      <trkpt lat="44.76752" lon="5.79095">
        <ele>1125</ele>
        <time>2025-04-21T12:58:33.000Z</time>
      </trkpt>
      <trkpt lat="44.76774" lon="5.79098">
        <ele>1129</ele>
        <time>2025-04-21T12:58:57.000Z</time>
      </trkpt>
      <trkpt lat="44.76794" lon="5.79114">
        <ele>1138</ele>
        <time>2025-04-21T12:59:18.000Z</time>
      </trkpt>
      <trkpt lat="44.76814" lon="5.7913">
        <ele>1141</ele>
        <time>2025-04-21T12:59:39.000Z</time>
      </trkpt>
      <trkpt lat="44.76833" lon="5.79149">
        <ele>1143</ele>
        <time>2025-04-21T13:00:03.000Z</time>
      </trkpt>
      <trkpt lat="44.76853" lon="5.79164">
        <ele>1148</ele>
        <time>2025-04-21T13:00:24.000Z</time>
      </trkpt>
      <trkpt lat="44.76874" lon="5.79177">
        <ele>1155</ele>
        <time>2025-04-21T13:00:45.000Z</time>
      </trkpt>
      <trkpt lat="44.76897" lon="5.79184">
        <ele>1155</ele>
        <time>2025-04-21T13:01:06.000Z</time>
      </trkpt>
      <trkpt lat="44.76921" lon="5.79184">
        <ele>1155</ele>
        <time>2025-04-21T13:01:24.000Z</time>
      </trkpt>
      <trkpt lat="44.76943" lon="5.79193">
        <ele>1161</ele>
        <time>2025-04-21T13:01:45.000Z</time>
      </trkpt>
      <trkpt lat="44.76962" lon="5.79214">
        <ele>1169</ele>
        <time>2025-04-21T13:02:09.000Z</time>
      </trkpt>
      <trkpt lat="44.76977" lon="5.79241">
        <ele>1173</ele>
        <time>2025-04-21T13:02:30.000Z</time>
      </trkpt>
      <trkpt lat="44.76984" lon="5.79272">
        <ele>1180</ele>
        <time>2025-04-21T13:02:51.000Z</time>
      </trkpt>
      <trkpt lat="44.76992" lon="5.79302">
        <ele>1185</ele>
        <time>2025-04-21T13:03:12.000Z</time>
      </trkpt>
      <trkpt lat="44.7701" lon="5.7932">
        <ele>1183</ele>
        <time>2025-04-21T13:03:27.000Z</time>
      </trkpt>
      <trkpt lat="44.77033" lon="5.7933">
        <ele>1183</ele>
        <time>2025-04-21T13:03:51.000Z</time>
      </trkpt>
      <trkpt lat="44.77057" lon="5.79342">
        <ele>1181</ele>
        <time>2025-04-21T13:04:12.000Z</time>
      </trkpt>
      <trkpt lat="44.77071" lon="5.79368">
        <ele>1186</ele>
        <time>2025-04-21T13:04:33.000Z</time>
      </trkpt>
      <trkpt lat="44.7708" lon="5.79401">
        <ele>1190</ele>
        <time>2025-04-21T13:04:57.000Z</time>
      </trkpt>
      <trkpt lat="44.77082" lon="5.79425">
        <ele>1196</ele>
        <time>2025-04-21T13:05:18.000Z</time>
      </trkpt>
      <trkpt lat="44.77073" lon="5.79404">
        <ele>1193</ele>
        <time>2025-04-21T13:05:45.000Z</time>
      </trkpt>
      <trkpt lat="44.77056" lon="5.79383">
        <ele>1193</ele>
        <time>2025-04-21T13:06:09.000Z</time>
      </trkpt>
      <trkpt lat="44.77034" lon="5.79371">
        <ele>1196</ele>
        <time>2025-04-21T13:06:30.000Z</time>
      </trkpt>
      <trkpt lat="44.77009" lon="5.79366">
        <ele>1200</ele>
        <time>2025-04-21T13:06:51.000Z</time>
      </trkpt>
      <trkpt lat="44.76985" lon="5.79361">
        <ele>1206</ele>
        <time>2025-04-21T13:07:12.000Z</time>
      </trkpt>
      <trkpt lat="44.76963" lon="5.79355">
        <ele>1212</ele>
        <time>2025-04-21T13:07:30.000Z</time>
      </trkpt>
      <trkpt lat="44.76946" lon="5.79335">
        <ele>1210</ele>
        <time>2025-04-21T13:07:54.000Z</time>
      </trkpt>
      <trkpt lat="44.76927" lon="5.79312">
        <ele>1213</ele>
        <time>2025-04-21T13:08:12.000Z</time>
      </trkpt>
      <trkpt lat="44.76905" lon="5.79302">
        <ele>1217</ele>
        <time>2025-04-21T13:08:33.000Z</time>
      </trkpt>
      <trkpt lat="44.76881" lon="5.79295">
        <ele>1223</ele>
        <time>2025-04-21T13:08:57.000Z</time>
      </trkpt>
      <trkpt lat="44.76855" lon="5.79288">
        <ele>1223</ele>
        <time>2025-04-21T13:09:18.000Z</time>
      </trkpt>
      <trkpt lat="44.76832" lon="5.7928">
        <ele>1220</ele>
        <time>2025-04-21T13:09:39.000Z</time>
      </trkpt>
      <trkpt lat="44.76811" lon="5.79285">
        <ele>1221</ele>
        <time>2025-04-21T13:10:00.000Z</time>
      </trkpt>
      <trkpt lat="44.76793" lon="5.79304">
        <ele>1227</ele>
        <time>2025-04-21T13:10:21.000Z</time>
      </trkpt>
      <trkpt lat="44.76775" lon="5.79325">
        <ele>1233</ele>
        <time>2025-04-21T13:10:42.000Z</time>
      </trkpt>
      <trkpt lat="44.76757" lon="5.79343">
        <ele>1233</ele>
        <time>2025-04-21T13:11:00.000Z</time>
      </trkpt>
      <trkpt lat="44.76737" lon="5.79358">
        <ele>1231</ele>
        <time>2025-04-21T13:11:18.000Z</time>
      </trkpt>
      <trkpt lat="44.76719" lon="5.79383">
        <ele>1234</ele>
        <time>2025-04-21T13:11:39.000Z</time>
      </trkpt>
      <trkpt lat="44.76702" lon="5.79408">
        <ele>1236</ele>
        <time>2025-04-21T13:12:03.000Z</time>
      </trkpt>
      <trkpt lat="44.76686" lon="5.79423">
        <ele>1244</ele>
        <time>2025-04-21T13:12:24.000Z</time>
      </trkpt>
      <trkpt lat="44.76702" lon="5.79434">
        <ele>1251</ele>
        <time>2025-04-21T13:12:54.000Z</time>
      </trkpt>
      <trkpt lat="44.76722" lon="5.79421">
        <ele>1251</ele>
        <time>2025-04-21T13:13:12.000Z</time>
      </trkpt>
      <trkpt lat="44.7674" lon="5.79401">
        <ele>1251</ele>
        <time>2025-04-21T13:13:33.000Z</time>
      </trkpt>
      <trkpt lat="44.76762" lon="5.79395">
        <ele>1257</ele>
        <time>2025-04-21T13:13:54.000Z</time>
      </trkpt>
      <trkpt lat="44.76785" lon="5.79389">
        <ele>1261</ele>
        <time>2025-04-21T13:14:15.000Z</time>
      </trkpt>
      <trkpt lat="44.76806" lon="5.79397">
        <ele>1267</ele>
        <time>2025-04-21T13:14:39.000Z</time>
      </trkpt>
      <trkpt lat="44.76822" lon="5.79421">
        <ele>1273</ele>
        <time>2025-04-21T13:15:03.000Z</time>
      </trkpt>
      <trkpt lat="44.76837" lon="5.79447">
        <ele>1276</ele>
        <time>2025-04-21T13:15:21.000Z</time>
      </trkpt>
      <trkpt lat="44.76852" lon="5.79472">
        <ele>1281</ele>
        <time>2025-04-21T13:15:39.000Z</time>
      </trkpt>
      <trkpt lat="44.76871" lon="5.79494">
        <ele>1283</ele>
        <time>2025-04-21T13:16:00.000Z</time>
      </trkpt>
      <trkpt lat="44.7689" lon="5.79517">
        <ele>1285</ele>
        <time>2025-04-21T13:16:21.000Z</time>
      </trkpt>
      <trkpt lat="44.76908" lon="5.79542">
        <ele>1288</ele>
        <time>2025-04-21T13:16:42.000Z</time>
      </trkpt>
      <trkpt lat="44.76924" lon="5.79568">
        <ele>1294</ele>
        <time>2025-04-21T13:17:03.000Z</time>
      </trkpt>
      <trkpt lat="44.76939" lon="5.79594">
        <ele>1298</ele>
        <time>2025-04-21T13:17:24.000Z</time>
      </trkpt>
      <trkpt lat="44.76955" lon="5.79618">
        <ele>1299</ele>
        <time>2025-04-21T13:17:42.000Z</time>
      </trkpt>
      <trkpt lat="44.76971" lon="5.79645">
        <ele>1300</ele>
        <time>2025-04-21T13:18:03.000Z</time>
      </trkpt>
      <trkpt lat="44.76988" lon="5.79668">
        <ele>1304</ele>
        <time>2025-04-21T13:18:24.000Z</time>
      </trkpt>
      <trkpt lat="44.77007" lon="5.79689">
        <ele>1307</ele>
        <time>2025-04-21T13:18:48.000Z</time>
      </trkpt>
      <trkpt lat="44.77027" lon="5.79709">
        <ele>1308</ele>
        <time>2025-04-21T13:19:06.000Z</time>
      </trkpt>
      <trkpt lat="44.77048" lon="5.79725">
        <ele>1308</ele>
        <time>2025-04-21T13:19:27.000Z</time>
      </trkpt>
      <trkpt lat="44.77066" lon="5.79744">
        <ele>1307</ele>
        <time>2025-04-21T13:19:45.000Z</time>
      </trkpt>
      <trkpt lat="44.77075" lon="5.79775">
        <ele>1310</ele>
        <time>2025-04-21T13:20:06.000Z</time>
      </trkpt>
      <trkpt lat="44.77083" lon="5.79806">
        <ele>1313</ele>
        <time>2025-04-21T13:20:27.000Z</time>
      </trkpt>
      <trkpt lat="44.77093" lon="5.79836">
        <ele>1315</ele>
        <time>2025-04-21T13:20:45.000Z</time>
      </trkpt>
      <trkpt lat="44.77107" lon="5.79864">
        <ele>1318</ele>
        <time>2025-04-21T13:21:03.000Z</time>
      </trkpt>
      <trkpt lat="44.77125" lon="5.79888">
        <ele>1321</ele>
        <time>2025-04-21T13:21:24.000Z</time>
      </trkpt>
      <trkpt lat="44.77145" lon="5.79911">
        <ele>1322</ele>
        <time>2025-04-21T13:21:45.000Z</time>
      </trkpt>
      <trkpt lat="44.77163" lon="5.79934">
        <ele>1323</ele>
        <time>2025-04-21T13:22:06.000Z</time>
      </trkpt>
      <trkpt lat="44.77178" lon="5.79957">
        <ele>1325</ele>
        <time>2025-04-21T13:22:24.000Z</time>
      </trkpt>
      <trkpt lat="44.77187" lon="5.79987">
        <ele>1330</ele>
        <time>2025-04-21T13:22:42.000Z</time>
      </trkpt>
      <trkpt lat="44.77192" lon="5.8001">
        <ele>1330</ele>
        <time>2025-04-21T13:23:00.000Z</time>
      </trkpt>
      <trkpt lat="44.77176" lon="5.79993">
        <ele>1335</ele>
        <time>2025-04-21T13:23:57.000Z</time>
      </trkpt>
      <trkpt lat="44.77155" lon="5.79975">
        <ele>1338</ele>
        <time>2025-04-21T13:24:15.000Z</time>
      </trkpt>
      <trkpt lat="44.77133" lon="5.79965">
        <ele>1344</ele>
        <time>2025-04-21T13:24:33.000Z</time>
      </trkpt>
      <trkpt lat="44.77108" lon="5.79955">
        <ele>1349</ele>
        <time>2025-04-21T13:24:54.000Z</time>
      </trkpt>
      <trkpt lat="44.77086" lon="5.79938">
        <ele>1351</ele>
        <time>2025-04-21T13:25:15.000Z</time>
      </trkpt>
      <trkpt lat="44.77066" lon="5.79923">
        <ele>1354</ele>
        <time>2025-04-21T13:25:36.000Z</time>
      </trkpt>
      <trkpt lat="44.77046" lon="5.79907">
        <ele>1358</ele>
        <time>2025-04-21T13:25:57.000Z</time>
      </trkpt>
      <trkpt lat="44.77027" lon="5.79889">
        <ele>1363</ele>
        <time>2025-04-21T13:26:57.000Z</time>
      </trkpt>
    </trkseg>
  </trk>
</gpx>